createdAt,value
2023-05-17T00:01:16.974Z,10.30
2023-05-17T00:03:44.590Z,12.10
2023-05-17T00:06:12.385Z,12.30
2023-05-17T00:08:40.111Z,10.10
2023-05-17T00:11:07.812Z,12.70
2023-05-17T00:13:35.736Z,12.70
2023-05-17T00:16:04.285Z,12.50
2023-05-17T00:18:32.044Z,14.40
2023-05-17T00:21:00.077Z,12.50
2023-05-17T00:23:27.668Z,12.50
2023-05-17T00:25:55.348Z,11.10
2023-05-17T00:28:22.954Z,11.50
2023-05-17T00:30:51.170Z,13.40
2023-05-17T00:33:18.855Z,16.40
2023-05-17T00:35:46.542Z,13.50
2023-05-17T00:38:14.224Z,11.80
2023-05-17T00:40:42.390Z,10.50
2023-05-17T00:43:11.314Z,10.70
2023-05-17T00:45:38.931Z,10.70
2023-05-17T00:48:06.761Z,9.90
2023-05-17T00:50:34.713Z,10.20
2023-05-17T00:53:02.558Z,10.10
2023-05-17T00:55:30.689Z,9.40
2023-05-17T00:57:58.844Z,10.60
2023-05-17T01:00:27.336Z,11.20
2023-05-17T01:02:55.140Z,9.00
2023-05-17T01:05:23.035Z,11.30
2023-05-17T01:07:50.869Z,11.40
2023-05-17T01:10:18.616Z,10.70
2023-05-17T01:13:00.676Z,9.90
2023-05-17T01:15:43.395Z,10.00
2023-05-17T01:18:41.593Z,12.00
2023-05-17T01:21:41.754Z,11.20
2023-05-17T01:24:39.921Z,13.60
2023-05-17T01:27:10.730Z,12.00
2023-05-17T01:29:41.605Z,12.20
2023-05-17T01:32:11.647Z,11.80
2023-05-17T01:34:41.378Z,10.90
2023-05-17T01:37:09.020Z,9.70
2023-05-17T01:39:36.786Z,9.50
2023-05-17T01:42:32.702Z,11.30
2023-05-17T01:45:21.755Z,11.50
2023-05-17T01:48:26.405Z,12.90
2023-05-17T01:50:59.183Z,10.30
2023-05-17T01:53:45.371Z,12.80
2023-05-17T01:56:21.882Z,11.70
2023-05-17T01:58:52.916Z,12.40
2023-05-17T02:01:22.742Z,11.20
2023-05-17T02:03:50.710Z,13.30
2023-05-17T02:06:18.529Z,13.90
2023-05-17T02:08:46.276Z,11.50
2023-05-17T02:11:13.896Z,14.30
2023-05-17T02:13:41.657Z,11.10
2023-05-17T02:16:09.337Z,10.90
2023-05-17T02:18:37.943Z,11.00
2023-05-17T02:21:06.058Z,10.70
2023-05-17T02:23:33.688Z,13.20
2023-05-17T02:26:01.452Z,11.30
2023-05-17T02:28:29.105Z,10.50
2023-05-17T02:30:56.793Z,11.70
2023-05-17T02:33:24.573Z,10.60
2023-05-17T02:35:52.546Z,11.20
2023-05-17T02:38:20.251Z,11.10
2023-05-17T02:40:48.017Z,12.80
2023-05-17T02:43:15.764Z,9.60
2023-05-17T02:45:46.188Z,12.40
2023-05-17T02:48:13.922Z,13.70
2023-05-17T02:50:41.602Z,14.00
2023-05-17T02:53:09.660Z,13.70
2023-05-17T02:55:40.038Z,13.80
2023-05-17T02:58:07.793Z,13.80
2023-05-17T03:00:35.455Z,14.90
2023-05-17T03:03:03.183Z,13.90
2023-05-17T03:05:31.068Z,15.80
2023-05-17T03:07:58.788Z,12.60
2023-05-17T03:10:26.494Z,11.50
2023-05-17T03:12:54.222Z,16.10
2023-05-17T03:15:22.492Z,36.20
2023-05-17T03:17:50.256Z,23.30
2023-05-17T03:20:18.421Z,22.10
2023-05-17T03:22:46.067Z,17.70
2023-05-17T03:25:13.730Z,17.00
2023-05-17T03:27:41.440Z,12.80
2023-05-17T03:30:09.924Z,11.00
2023-05-17T03:32:40.911Z,18.70
2023-05-17T03:35:09.564Z,15.10
2023-05-17T03:37:37.384Z,13.10
2023-05-17T03:40:06.667Z,17.80
2023-05-17T03:42:34.347Z,14.00
2023-05-17T03:45:02.274Z,18.30
2023-05-17T03:47:29.961Z,16.30
2023-05-17T03:49:57.686Z,14.20
2023-05-17T03:52:25.480Z,14.60
2023-05-17T03:54:53.253Z,15.70
2023-05-17T03:57:21.991Z,15.60
2023-05-17T03:59:49.653Z,14.80
2023-05-17T04:02:17.646Z,11.00
2023-05-17T04:04:53.292Z,15.50
2023-05-17T04:07:21.065Z,15.10
2023-05-17T04:09:48.704Z,16.20
2023-05-17T04:12:16.426Z,16.90
2023-05-17T04:14:44.099Z,14.50
2023-05-17T04:17:11.926Z,15.00
2023-05-17T04:19:39.613Z,14.20
2023-05-17T04:22:07.394Z,14.50
2023-05-17T04:24:35.205Z,15.30
2023-05-17T04:27:04.430Z,12.70
2023-05-17T04:29:32.270Z,16.80
2023-05-17T04:32:00.133Z,16.20
2023-05-17T04:34:27.826Z,16.40
2023-05-17T04:36:55.551Z,15.30
2023-05-17T04:39:23.312Z,17.00
2023-05-17T04:41:51.746Z,15.00
2023-05-17T04:44:19.444Z,14.90
2023-05-17T04:46:47.083Z,16.60
2023-05-17T04:49:15.089Z,14.00
2023-05-17T04:51:42.748Z,16.90
2023-05-17T04:54:10.547Z,12.40
2023-05-17T04:56:38.272Z,14.70
2023-05-17T04:59:06.185Z,15.70
2023-05-17T05:01:35.471Z,14.30
2023-05-17T05:04:07.379Z,12.30
2023-05-17T05:06:35.370Z,14.60
2023-05-17T05:09:04.369Z,13.50
2023-05-17T05:11:32.430Z,14.30
2023-05-17T05:14:00.161Z,13.10
2023-05-17T05:16:27.948Z,14.30
2023-05-17T05:18:55.690Z,13.00
2023-05-17T05:21:23.557Z,16.70
2023-05-17T05:23:51.375Z,14.70
2023-05-17T05:26:19.109Z,11.90
2023-05-17T05:28:46.854Z,14.80
2023-05-17T05:31:14.556Z,12.70
2023-05-17T05:33:43.327Z,14.30
2023-05-17T05:36:11.260Z,13.70
2023-05-17T05:38:38.921Z,14.90
2023-05-17T05:41:06.945Z,15.80
2023-05-17T05:43:36.267Z,13.80
2023-05-17T05:46:04.639Z,17.60
2023-05-17T05:48:32.452Z,14.00
2023-05-17T05:51:00.502Z,15.50
2023-05-17T05:53:28.203Z,14.10
2023-05-17T05:55:56.266Z,14.10
2023-05-17T05:58:24.014Z,15.00
2023-05-17T06:00:52.093Z,12.20
2023-05-17T06:03:19.864Z,13.30
2023-05-17T06:05:47.588Z,17.50
2023-05-17T06:08:15.435Z,13.40
2023-05-17T06:10:43.256Z,13.50
2023-05-17T06:13:11.134Z,12.40
2023-05-17T06:15:38.967Z,14.30
2023-05-17T06:18:09.532Z,16.60
2023-05-17T06:20:37.424Z,17.10
2023-05-17T06:23:05.822Z,15.70
2023-05-17T06:25:33.645Z,14.30
2023-05-17T06:28:02.905Z,16.90
2023-05-17T06:30:31.291Z,11.40
2023-05-17T06:32:59.423Z,15.30
2023-05-17T06:35:27.377Z,16.90
2023-05-17T06:37:55.286Z,17.00
2023-05-17T06:40:23.288Z,20.00
2023-05-17T06:42:50.909Z,16.10
2023-05-17T06:45:18.568Z,18.60
2023-05-17T06:47:46.447Z,18.50
2023-05-17T06:50:14.609Z,18.20
2023-05-17T06:52:42.357Z,22.80
2023-05-17T06:55:10.106Z,15.90
2023-05-17T06:57:37.862Z,18.70
2023-05-17T07:00:10.758Z,17.70
2023-05-17T07:02:38.600Z,16.20
2023-05-17T07:05:07.164Z,14.30
2023-05-17T07:07:35.177Z,14.40
2023-05-17T07:10:04.076Z,12.30
2023-05-17T07:12:31.812Z,16.30
2023-05-17T07:14:59.732Z,15.10
2023-05-17T07:17:29.775Z,16.70
2023-05-17T07:19:57.691Z,13.00
2023-05-17T07:22:25.844Z,16.10
2023-05-17T07:24:53.770Z,13.90
2023-05-17T07:27:21.484Z,15.20
2023-05-17T07:29:49.215Z,10.80
2023-05-17T07:32:18.014Z,12.50
2023-05-17T07:34:47.453Z,13.40
2023-05-17T07:37:15.163Z,14.00
2023-05-17T07:39:44.070Z,15.60
2023-05-17T07:42:11.747Z,14.80
2023-05-17T07:44:39.382Z,13.80
2023-05-17T07:47:07.209Z,18.30
2023-05-17T07:49:34.981Z,13.60
2023-05-17T07:52:03.182Z,16.10
2023-05-17T07:54:30.969Z,16.60
2023-05-17T07:56:59.778Z,18.60
2023-05-17T07:59:27.477Z,14.00
2023-05-17T08:01:55.174Z,20.20
2023-05-17T08:04:24.358Z,17.50
2023-05-17T08:06:55.500Z,16.70
2023-05-17T08:09:23.255Z,16.10
2023-05-17T08:11:51.508Z,21.70
2023-05-17T08:14:23.296Z,19.80
2023-05-17T08:16:54.776Z,19.10
2023-05-17T08:19:22.554Z,24.00
2023-05-17T08:21:50.483Z,18.70
2023-05-17T08:24:18.290Z,15.70
2023-05-17T08:26:45.920Z,20.30
2023-05-17T08:29:13.676Z,18.30
2023-05-17T08:31:42.028Z,19.30
2023-05-17T08:34:09.989Z,22.10
2023-05-17T08:36:37.955Z,19.00
2023-05-17T08:39:05.634Z,19.10
2023-05-17T08:41:33.431Z,15.10
2023-05-17T08:44:04.405Z,13.70
2023-05-17T08:46:35.135Z,13.60
2023-05-17T08:49:06.774Z,13.60
2023-05-17T08:51:36.501Z,12.20
2023-05-17T08:54:06.281Z,12.80
2023-05-17T08:56:39.503Z,16.10
2023-05-17T08:59:12.462Z,14.40
2023-05-17T09:01:42.196Z,24.60
2023-05-17T09:04:10.811Z,32.40
2023-05-17T09:06:38.832Z,22.40
2023-05-17T09:09:09.069Z,13.60
2023-05-17T09:11:36.805Z,14.00
2023-05-17T09:14:06.684Z,14.10
2023-05-17T09:16:37.503Z,13.20
2023-05-17T09:19:09.048Z,17.70
2023-05-17T09:21:37.310Z,9.70
2023-05-17T09:24:07.803Z,14.80
2023-05-17T09:26:42.242Z,12.70
2023-05-17T09:29:16.098Z,13.90
2023-05-17T09:31:44.900Z,14.40
2023-05-17T09:34:12.868Z,13.70
2023-05-17T09:36:44.315Z,14.40
2023-05-17T09:39:14.645Z,14.90
2023-05-17T09:41:45.591Z,14.30
2023-05-17T09:44:14.783Z,13.80
2023-05-17T09:46:47.548Z,16.40
2023-05-17T09:49:17.581Z,13.30
2023-05-17T09:51:49.531Z,9.90
2023-05-17T09:54:20.497Z,10.70
2023-05-17T09:56:59.679Z,12.10
2023-05-17T09:59:29.966Z,17.40
2023-05-17T10:01:59.746Z,12.20
2023-05-17T10:04:32.626Z,11.80
2023-05-17T10:07:01.185Z,10.40
2023-05-17T10:09:35.103Z,11.40
2023-05-17T10:12:08.196Z,11.60
2023-05-17T10:14:38.811Z,10.40
2023-05-17T10:17:09.213Z,11.30
2023-05-17T10:19:37.695Z,11.50
2023-05-17T10:22:21.522Z,12.20
2023-05-17T10:24:52.013Z,10.70
2023-05-17T10:27:21.771Z,14.00
2023-05-17T10:29:50.919Z,18.20
2023-05-17T10:32:23.625Z,23.00
2023-05-17T10:35:02.029Z,14.90
2023-05-17T10:37:38.987Z,9.20
2023-05-17T10:40:14.916Z,14.10
2023-05-17T10:42:48.046Z,10.70
2023-05-17T10:45:15.847Z,11.10
2023-05-17T10:47:46.514Z,11.80
2023-05-17T10:50:24.505Z,8.80
2023-05-17T10:52:55.888Z,16.90
2023-05-17T10:55:41.335Z,13.70
2023-05-17T10:58:16.939Z,13.20
2023-05-17T11:00:51.257Z,17.20
2023-05-17T11:03:31.575Z,15.10
2023-05-17T11:06:25.616Z,14.90
2023-05-17T11:09:16.268Z,11.20
2023-05-17T11:12:11.405Z,11.90
2023-05-17T11:14:45.281Z,12.60
2023-05-17T11:17:28.153Z,10.30
2023-05-17T11:20:13.511Z,10.70
2023-05-17T11:23:00.531Z,10.80
2023-05-17T11:25:32.499Z,12.80
2023-05-17T11:28:00.330Z,14.10
2023-05-17T11:30:32.588Z,12.30
2023-05-17T11:33:01.590Z,14.40
2023-05-17T11:35:35.877Z,12.70
2023-05-17T11:38:18.424Z,17.80
2023-05-17T11:40:48.702Z,17.10
2023-05-17T11:43:20.189Z,11.20
2023-05-17T11:45:53.445Z,11.90
2023-05-17T11:48:24.811Z,14.00
2023-05-17T11:50:55.472Z,39.70
2023-05-17T11:53:25.604Z,15.30
2023-05-17T11:55:53.653Z,13.10
2023-05-17T11:58:26.573Z,15.80
2023-05-17T12:00:59.153Z,16.90
2023-05-17T12:03:30.032Z,16.70
2023-05-17T12:06:13.160Z,16.00
2023-05-17T12:08:45.615Z,14.80
2023-05-17T12:11:17.735Z,13.60
2023-05-17T12:13:49.104Z,12.00
2023-05-17T12:16:22.080Z,14.30
2023-05-17T12:18:51.970Z,11.50
2023-05-17T12:21:21.582Z,14.00
2023-05-17T12:23:52.474Z,16.30
2023-05-17T12:26:23.090Z,23.10
2023-05-17T12:29:00.288Z,11.40
2023-05-17T12:31:40.407Z,12.90
2023-05-17T12:34:09.781Z,10.80
2023-05-17T12:36:38.532Z,15.10
2023-05-17T12:39:10.572Z,13.20
2023-05-17T12:41:39.687Z,10.20
2023-05-17T12:44:15.375Z,12.80
2023-05-17T12:46:45.488Z,14.60
2023-05-17T12:49:13.799Z,16.60
2023-05-17T12:51:45.444Z,14.70
2023-05-17T12:54:30.315Z,16.70
2023-05-17T12:56:58.043Z,16.40
2023-05-17T12:59:26.149Z,17.70
2023-05-17T13:01:58.285Z,19.10
2023-05-17T13:04:33.148Z,11.90
2023-05-17T13:07:04.664Z,16.70
2023-05-17T13:09:34.527Z,13.50
2023-05-17T13:12:07.190Z,15.20
2023-05-17T13:14:44.459Z,14.30
2023-05-17T13:17:27.239Z,12.40
2023-05-17T13:19:57.928Z,14.80
2023-05-17T13:22:26.370Z,13.70
2023-05-17T13:24:54.862Z,17.30
2023-05-17T13:27:22.697Z,15.90
2023-05-17T13:29:50.462Z,13.10
2023-05-17T13:32:19.281Z,15.30
2023-05-17T13:34:47.118Z,13.30
2023-05-17T13:37:14.853Z,18.30
2023-05-17T13:39:42.809Z,12.80
2023-05-17T13:42:14.436Z,14.50
2023-05-17T13:44:42.573Z,17.20
2023-05-17T13:47:10.674Z,13.60
2023-05-17T13:49:38.388Z,14.60
2023-05-17T13:52:10.129Z,15.30
2023-05-17T13:54:38.170Z,16.40
2023-05-17T13:57:07.738Z,15.30
2023-05-17T13:59:35.837Z,11.30
2023-05-17T14:02:04.453Z,14.80
2023-05-17T14:04:33.121Z,12.50
2023-05-17T14:07:03.497Z,16.40
2023-05-17T14:09:34.026Z,14.00
2023-05-17T14:12:01.876Z,15.40
2023-05-17T14:14:30.440Z,17.60
2023-05-17T14:16:58.198Z,14.00
2023-05-17T14:19:25.975Z,12.40
2023-05-17T14:21:53.802Z,16.60
2023-05-17T14:24:21.564Z,27.40
2023-05-17T14:26:49.240Z,18.70
2023-05-17T14:29:17.120Z,17.00
2023-05-17T14:31:44.823Z,14.60
2023-05-17T14:34:12.601Z,15.50
2023-05-17T14:36:40.341Z,18.10
2023-05-17T14:39:08.036Z,21.00
2023-05-17T14:41:35.698Z,19.30
2023-05-17T14:44:03.510Z,21.20
2023-05-17T14:46:31.557Z,20.40
2023-05-17T14:48:59.356Z,16.40
2023-05-17T14:51:27.574Z,20.10
2023-05-17T14:53:55.276Z,17.90
2023-05-17T14:56:23.774Z,17.90
2023-05-17T14:58:52.262Z,20.30
2023-05-17T15:01:20.981Z,22.60
2023-05-17T15:03:48.835Z,32.50
2023-05-17T15:06:17.312Z,30.00
2023-05-17T15:08:44.972Z,18.50
2023-05-17T15:11:12.645Z,20.60
2023-05-17T15:13:40.259Z,18.80
2023-05-17T15:16:08.802Z,26.90
2023-05-17T15:18:38.004Z,20.00
2023-05-17T15:21:05.746Z,21.30
2023-05-17T15:23:33.469Z,21.50
2023-05-17T15:26:01.090Z,21.60
2023-05-17T15:28:28.729Z,26.50
2023-05-17T15:31:02.388Z,20.20
2023-05-17T15:33:31.056Z,25.60
2023-05-17T15:35:58.867Z,21.50
2023-05-17T15:38:27.111Z,24.80
2023-05-17T15:41:10.566Z,20.60
2023-05-17T15:43:38.374Z,17.60
2023-05-17T15:46:06.315Z,17.10
2023-05-17T15:48:35.969Z,20.00
2023-05-17T15:51:04.116Z,19.40
2023-05-17T15:53:33.400Z,19.80
2023-05-17T15:56:01.305Z,23.10
2023-05-17T15:58:32.979Z,20.00
2023-05-17T16:01:05.760Z,20.90
2023-05-17T16:03:34.355Z,22.30
2023-05-17T16:06:04.421Z,21.80
2023-05-17T16:08:32.384Z,22.10
2023-05-17T16:11:02.333Z,23.00
2023-05-17T16:13:31.153Z,24.60
2023-05-17T16:16:00.597Z,23.20
2023-05-17T16:18:29.248Z,22.10
2023-05-17T16:21:03.924Z,23.10
2023-05-17T16:23:32.669Z,21.60
2023-05-17T16:26:00.337Z,20.60
2023-05-17T16:28:28.126Z,22.40
2023-05-17T16:30:56.306Z,18.30
2023-05-17T16:33:24.102Z,25.40
2023-05-17T16:35:52.121Z,23.20
2023-05-17T16:38:19.797Z,25.10
2023-05-17T16:40:47.586Z,19.20
2023-05-17T16:43:16.241Z,17.90
2023-05-17T16:45:44.946Z,19.30
2023-05-17T16:48:14.767Z,21.30
2023-05-17T16:50:42.840Z,20.20
2023-05-17T16:53:10.752Z,20.60
2023-05-17T16:55:38.473Z,18.50
2023-05-17T16:58:06.391Z,17.10
2023-05-17T17:00:34.864Z,26.90
2023-05-17T17:03:02.857Z,22.90
2023-05-17T17:05:30.620Z,23.90
2023-05-17T17:07:58.439Z,23.50
2023-05-17T17:10:26.312Z,25.30
2023-05-17T17:12:54.076Z,22.70
2023-05-17T17:15:22.981Z,22.00
2023-05-17T17:17:50.791Z,19.70
2023-05-17T17:20:18.593Z,18.20
2023-05-17T17:22:46.666Z,26.50
2023-05-17T17:25:14.403Z,23.20
2023-05-17T17:27:42.223Z,22.20
2023-05-17T17:30:10.705Z,19.60
2023-05-17T17:32:38.464Z,23.60
2023-05-17T17:35:06.980Z,25.10
2023-05-17T17:37:34.711Z,19.80
2023-05-17T17:40:03.628Z,21.70
2023-05-17T17:42:32.371Z,23.10
2023-05-17T17:44:59.984Z,19.70
2023-05-17T17:47:27.695Z,26.20
2023-05-17T17:49:55.415Z,22.60
2023-05-17T17:52:23.236Z,22.50
2023-05-17T17:54:50.897Z,21.80
2023-05-17T17:57:19.492Z,19.20
2023-05-17T17:59:47.218Z,19.50
2023-05-17T18:02:14.934Z,19.10
2023-05-17T18:04:43.288Z,19.80
2023-05-17T18:07:12.760Z,18.20
2023-05-17T18:09:40.573Z,19.20
2023-05-17T18:12:08.454Z,22.70
2023-05-17T18:14:36.406Z,18.60
2023-05-17T18:17:04.379Z,20.90
2023-05-17T18:19:32.171Z,20.10
2023-05-17T18:21:59.874Z,17.80
2023-05-17T18:24:27.710Z,15.30
2023-05-17T18:26:55.460Z,19.00
2023-05-17T18:29:23.285Z,17.00
2023-05-17T18:31:52.029Z,18.30
2023-05-17T18:34:19.746Z,17.40
2023-05-17T18:36:47.543Z,21.40
2023-05-17T18:39:15.240Z,22.50
2023-05-17T18:41:43.323Z,16.40
2023-05-17T18:44:12.110Z,16.70
2023-05-17T18:46:40.814Z,17.70
2023-05-17T18:49:08.441Z,18.70
2023-05-17T18:51:36.419Z,19.00
2023-05-17T18:54:04.248Z,17.60
2023-05-17T18:56:32.780Z,16.90
2023-05-17T18:59:01.160Z,17.00
2023-05-17T19:01:28.942Z,13.90
2023-05-17T19:03:56.851Z,16.20
2023-05-17T19:06:27.745Z,15.60
2023-05-17T19:08:55.621Z,20.00
2023-05-17T19:11:23.544Z,23.00
2023-05-17T19:13:51.272Z,20.10
2023-05-17T19:16:18.996Z,17.30
2023-05-17T19:18:46.768Z,17.40
2023-05-17T19:21:14.468Z,15.80
2023-05-17T19:23:42.226Z,13.60
2023-05-17T19:26:09.908Z,19.00
2023-05-17T19:28:37.588Z,15.20
2023-05-17T19:31:05.677Z,19.90
2023-05-17T19:33:34.262Z,29.40
2023-05-17T19:36:02.049Z,22.80
2023-05-17T19:38:30.070Z,22.10
2023-05-17T19:40:57.703Z,19.10
2023-05-17T19:43:25.730Z,15.50
2023-05-17T19:45:53.839Z,16.80
2023-05-17T19:48:24.048Z,16.20
2023-05-17T19:50:53.230Z,15.60
2023-05-17T19:53:22.941Z,17.20
2023-05-17T19:55:50.722Z,19.90
2023-05-17T19:58:18.524Z,17.10
2023-05-17T20:00:46.299Z,16.60
2023-05-17T20:03:14.024Z,20.30
2023-05-17T20:05:43.140Z,17.90
2023-05-17T20:08:10.925Z,19.20
2023-05-17T20:10:38.666Z,21.30
2023-05-17T20:13:06.530Z,20.80
2023-05-17T20:15:34.285Z,20.00
2023-05-17T20:18:02.079Z,18.20
2023-05-17T20:20:30.045Z,21.00
2023-05-17T20:22:58.115Z,21.80
2023-05-17T20:25:25.930Z,17.80
2023-05-17T20:27:53.755Z,17.40
2023-05-17T20:30:21.483Z,16.80
2023-05-17T20:32:49.498Z,16.00
2023-05-17T20:35:17.227Z,17.60
2023-05-17T20:37:44.977Z,16.40
2023-05-17T20:40:12.911Z,22.50
2023-05-17T20:42:40.599Z,11.00
2023-05-17T20:45:10.378Z,16.40
2023-05-17T20:47:39.349Z,16.00
2023-05-17T20:50:09.137Z,16.10
2023-05-17T20:52:39.779Z,17.50
2023-05-17T20:55:12.023Z,19.00
2023-05-17T20:57:39.693Z,18.00
2023-05-17T21:00:11.552Z,14.70
2023-05-17T21:02:39.491Z,14.80
2023-05-17T21:05:09.213Z,19.40
2023-05-17T21:07:39.363Z,16.60
2023-05-17T21:10:09.012Z,14.40
2023-05-17T21:12:36.738Z,15.50
2023-05-17T21:15:16.397Z,15.40
2023-05-17T21:17:45.596Z,16.40
2023-05-17T21:20:14.117Z,16.20
2023-05-17T21:22:41.922Z,19.30
2023-05-17T21:25:10.087Z,19.10
2023-05-17T21:27:37.860Z,20.10
2023-05-17T21:30:06.847Z,16.60
2023-05-17T21:32:34.721Z,16.00
2023-05-17T21:35:02.661Z,23.60
2023-05-17T21:37:30.381Z,14.90
2023-05-17T21:39:58.010Z,16.40
2023-05-17T21:42:25.981Z,18.00
2023-05-17T21:44:53.674Z,16.40
2023-05-17T21:47:21.320Z,18.70
2023-05-17T21:49:49.025Z,17.90
2023-05-17T21:52:17.913Z,19.40
2023-05-17T21:54:45.884Z,19.50
2023-05-17T21:57:13.660Z,17.60
2023-05-17T21:59:41.335Z,18.00
2023-05-17T22:02:09.170Z,16.50
2023-05-17T22:04:38.896Z,15.70
2023-05-17T22:07:07.105Z,15.30
2023-05-17T22:09:34.779Z,17.10
2023-05-17T22:12:08.466Z,17.90
2023-05-17T22:14:36.524Z,21.00
2023-05-17T22:17:08.641Z,17.20
2023-05-17T22:19:40.904Z,12.40
2023-05-17T22:22:09.252Z,17.60
2023-05-17T22:24:37.322Z,17.60
2023-05-17T22:27:05.333Z,17.90
2023-05-17T22:29:33.327Z,18.60
2023-05-17T22:32:01.111Z,19.30
2023-05-17T22:34:28.828Z,13.30
2023-05-17T22:36:57.322Z,19.90
2023-05-17T22:39:25.071Z,13.60
2023-05-17T22:41:52.746Z,16.30
2023-05-17T22:44:21.950Z,16.20
2023-05-17T22:46:49.998Z,14.60
2023-05-17T22:49:18.496Z,13.60
2023-05-17T22:51:47.255Z,14.50
2023-05-17T22:54:14.993Z,12.40
2023-05-17T22:56:42.671Z,13.30
2023-05-17T22:59:10.640Z,16.70
2023-05-17T23:01:38.429Z,13.10
2023-05-17T23:04:06.916Z,18.20
2023-05-17T23:06:35.134Z,16.80
2023-05-17T23:09:03.655Z,15.80
2023-05-17T23:11:31.986Z,17.10
2023-05-17T23:14:00.746Z,16.20
2023-05-17T23:16:28.525Z,13.90
2023-05-17T23:18:56.285Z,15.60
2023-05-17T23:21:23.966Z,14.00
2023-05-17T23:23:53.654Z,15.90
2023-05-17T23:26:22.208Z,13.70
2023-05-17T23:28:50.720Z,14.30
2023-05-17T23:31:18.456Z,14.20
2023-05-17T23:33:46.152Z,13.30
2023-05-17T23:36:13.839Z,15.90
2023-05-17T23:38:41.561Z,11.40
2023-05-17T23:41:11.570Z,14.50
2023-05-17T23:43:39.278Z,18.00
2023-05-17T23:46:06.955Z,15.80
2023-05-17T23:48:34.618Z,9.40
2023-05-17T23:51:02.340Z,10.50
2023-05-17T23:53:30.093Z,18.50
2023-05-17T23:55:57.729Z,13.80
2023-05-17T23:58:26.024Z,13.80
